Flight Track Log - Related Links

Times and Time Zones

All times are in EDT time to prevent confusion due to time zone crossing. See the SWA1718 flight status page for this flight to view local times or setup timezone preferences in your user account.

Time Position Orientation Groundspeed Altitude Reporting Facility
EDT Latitude Longitude Course Direction KTS MPH feet Rate Location/Type
Sat 08:53:26 AM 32.8667 -96.8667 301° West 140 161 1,500  Level Dallas / Fort Worth TRACON
Sat 08:54:02 AM 32.8833 -96.9000 301° West 216 249 2,400 2,188 Climbing Dallas / Fort Worth TRACON
Sat 08:55:02 AM 32.9167 -96.9500 308° West 224 258 5,000 2,300 Climbing Dallas / Fort Worth TRACON
Sat 08:56:02 AM 32.8667 -96.9833 209° Southwest 316 364 7,000 2,438 Climbing Dallas / Fort Worth TRACON
Sat 08:57:42 AM 32.7200 -97.0083 188° South 359 413 11,500 2,925 Climbing Fort Worth Center
Sat 08:58:42 AM 32.6094 -97.0214 186° South 364 419 14,800 3,000 Climbing Fort Worth Center
Sat 08:59:42 AM 32.5072 -97.0317 185° South 370 426 17,500 2,750 Climbing Fort Worth Center
Sat 09:00:42 AM 32.3986 -97.0592 192° South 386 444 20,300 2,400 Climbing Fort Worth Center
Sat 09:01:42 AM 32.2903 -97.0867 192° South 399 459 22,300 2,250 Climbing Fort Worth Center
Sat 09:02:42 AM 32.1858 -97.1089 190° South 420 483 24,800 2,200 Climbing Fort Worth Center
Sat 09:03:42 AM 32.0689 -97.1389 192° South 420 483 26,700 1,900 Climbing Fort Worth Center
Sat 09:04:42 AM 31.9417 -97.1711 192° South 432 497 28,600 1,650 Climbing Fort Worth Center
Sat 09:05:42 AM 31.8206 -97.1958 190° South 432 497 30,000 442 Climbing Fort Worth Center
Sat 09:07:52 AM 31.5494 -97.2603 191° South 464 534 30,000  Level Houston Center
Sat 09:08:54 AM 31.4228 -97.2897 191° South 462 532 30,000  Level Houston Center
Sat 09:09:55 AM 31.2964 -97.3192 191° South 461 531 30,000  Level Houston Center
Sat 09:10:56 AM 31.1708 -97.3486 191° South 457 526 30,000  Level Houston Center
Sat 09:11:58 AM 31.0472 -97.3792 192° South 455 524 30,000  Level Houston Center
Sat 09:12:59 AM 30.9219 -97.4064 191° South 462 532 30,000  Level Houston Center
Sat 09:14:01 AM 30.7761 -97.4397 191° South 460 529 30,000 -488 Level Houston Center
Sat 09:15:02 AM 30.6544 -97.4667 191° South 448 516 29,000 -1,561 Descending Houston Center
Sat 09:16:04 AM 30.5389 -97.4939 191° South 425 489 26,800 -2,146 Descending Houston Center
Sat 09:17:05 AM 30.4261 -97.5208 192° South 413 475 24,600 -2,098 Descending Houston Center
Sat 09:18:07 AM 30.3239 -97.5683 202° Southwest 401 461 22,500 -2,000 Descending Houston Center
Sat 09:19:08 AM 30.2297 -97.6319 210° Southwest 388 447 20,500 -2,056 Descending Houston Center
Sat 09:19:55 AM 30.1547 -97.6842 211° Southwest 383 441 18,800 -2,125 Descending Houston Center
Sat 09:20:44 AM 30.0800 -97.7372 212° Southwest 370 426 17,100 -2,073 Descending Houston Center
Sat 09:21:45 AM 29.9914 -97.7969 210° Southwest 365 420 15,000 -2,035 Descending Houston Center
Sat 09:22:39 AM 29.9125 -97.8528 212° Southwest 362 417 13,200 -1,416 Descending Houston Center
Sat 09:23:14 AM 29.8817 -97.8997 233° Southwest 340 391 12,900 -1,438 Descending Houston Center
Sat 09:24:15 AM 29.8417 -97.9942 244° Southwest 331 381 10,900 -1,770 Descending Houston Center
Sat 09:25:16 AM 29.7989 -98.0947 244° Southwest 325 374 9,300 -1,415 Descending Houston Center
Sat 09:26:18 AM 29.7617 -98.1833 244° Southwest 309 356 8,000 -1,366 Descending Houston Center
Sat 09:27:19 AM 29.7278 -98.2694 246° West 297 342 6,500 -1,463 Descending Houston Center
Sat 09:28:21 AM 29.6958 -98.3594 248° West 284 327 5,000 -1,268 Descending Houston Center
Sat 09:29:22 AM 29.6647 -98.4383 246° West 274 315 3,900 -639 Descending Houston Center
Sat 09:30:23 AM 29.6369 -98.5086 246° West 217 250 3,700 -488 Descending Houston Center
Sat 09:31:25 AM 29.6047 -98.5397 220° Southwest 154 177 2,900 -1,024 Descending Houston Center
Sat 09:32:26 AM 29.5703 -98.5203 154° Southeast 151 174 1,600 -1,024 Descending Houston Center
Sat 09:33:28 AM 29.5419 -98.4828 131° Southeast 146 168 800 -774 Descending Houston Center
Sat 09:35:00 AM 29.5340 -98.4691 196° South  Level Estimated

Login

Don't have an account? Register now (free) for customized features, flight alerts, and more!